sensor_id;sensor_type;location;lat;lon;timestamp;temperature;humidity
41928;DHT22;27616;51.420;6.788;2024-02-26T00:00:31;6.30;99.90
41928;DHT22;27616;51.420;6.788;2024-02-26T00:02:57;6.30;99.90
41928;DHT22;27616;51.420;6.788;2024-02-26T00:05:23;6.30;99.90
41928;DHT22;27616;51.420;6.788;2024-02-26T00:07:48;6.30;99.90
41928;DHT22;27616;51.420;6.788;2024-02-26T00:10:14;6.40;99.90
41928;DHT22;27616;51.420;6.788;2024-02-26T00:12:40;6.30;99.90
41928;DHT22;27616;51.420;6.788;2024-02-26T00:15:07;6.20;99.90
41928;DHT22;27616;51.420;6.788;2024-02-26T00:17:33;6.20;99.90
41928;DHT22;27616;51.420;6.788;2024-02-26T00:19:59;6.10;99.90
41928;DHT22;27616;51.420;6.788;2024-02-26T00:22:26;6.10;99.90
41928;DHT22;27616;51.420;6.788;2024-02-26T00:24:51;6.10;99.90
41928;DHT22;27616;51.420;6.788;2024-02-26T00:27:17;6.00;99.90
41928;DHT22;27616;51.420;6.788;2024-02-26T00:29:43;6.00;99.90
41928;DHT22;27616;51.420;6.788;2024-02-26T00:32:08;6.00;99.90
41928;DHT22;27616;51.420;6.788;2024-02-26T00:34:35;6.00;99.90
41928;DHT22;27616;51.420;6.788;2024-02-26T00:37:01;6.00;99.90
41928;DHT22;27616;51.420;6.788;2024-02-26T00:39:27;6.00;99.90
41928;DHT22;27616;51.420;6.788;2024-02-26T00:41:53;6.00;99.90
41928;DHT22;27616;51.420;6.788;2024-02-26T00:44:18;6.00;99.90
41928;DHT22;27616;51.420;6.788;2024-02-26T00:46:44;6.00;99.90
41928;DHT22;27616;51.420;6.788;2024-02-26T00:49:09;6.00;99.90
41928;DHT22;27616;51.420;6.788;2024-02-26T00:51:35;6.00;99.90
41928;DHT22;27616;51.420;6.788;2024-02-26T00:54:01;6.00;99.90
41928;DHT22;27616;51.420;6.788;2024-02-26T00:56:27;6.20;99.90
41928;DHT22;27616;51.420;6.788;2024-02-26T00:58:52;6.40;99.90
41928;DHT22;27616;51.420;6.788;2024-02-26T01:01:18;6.40;99.90
41928;DHT22;27616;51.420;6.788;2024-02-26T01:03:44;6.40;99.90
41928;DHT22;27616;51.420;6.788;2024-02-26T01:06:09;6.40;99.90
41928;DHT22;27616;51.420;6.788;2024-02-26T01:08:35;6.30;99.90
41928;DHT22;27616;51.420;6.788;2024-02-26T01:11:01;6.30;99.90
41928;DHT22;27616;51.420;6.788;2024-02-26T01:13:26;6.30;99.90
41928;DHT22;27616;51.420;6.788;2024-02-26T01:15:52;6.30;99.90
41928;DHT22;27616;51.420;6.788;2024-02-26T01:18:18;6.30;99.90
41928;DHT22;27616;51.420;6.788;2024-02-26T01:20:43;6.40;99.90
41928;DHT22;27616;51.420;6.788;2024-02-26T01:23:09;6.40;99.90
41928;DHT22;27616;51.420;6.788;2024-02-26T01:25:34;6.40;99.90
41928;DHT22;27616;51.420;6.788;2024-02-26T01:28:00;6.50;99.90
41928;DHT22;27616;51.420;6.788;2024-02-26T01:30:26;6.60;99.90
41928;DHT22;27616;51.420;6.788;2024-02-26T01:32:51;6.50;99.90
41928;DHT22;27616;51.420;6.788;2024-02-26T01:35:17;6.50;99.90
41928;DHT22;27616;51.420;6.788;2024-02-26T01:37:42;6.50;99.90
41928;DHT22;27616;51.420;6.788;2024-02-26T01:40:08;6.40;99.90
41928;DHT22;27616;51.420;6.788;2024-02-26T01:42:37;6.40;99.90
41928;DHT22;27616;51.420;6.788;2024-02-26T01:45:04;6.30;99.90
41928;DHT22;27616;51.420;6.788;2024-02-26T01:47:30;6.30;99.90
41928;DHT22;27616;51.420;6.788;2024-02-26T01:49:56;6.30;99.90
41928;DHT22;27616;51.420;6.788;2024-02-26T01:52:23;6.30;99.90
41928;DHT22;27616;51.420;6.788;2024-02-26T01:54:49;6.20;99.90
41928;DHT22;27616;51.420;6.788;2024-02-26T01:57:16;6.20;99.90
41928;DHT22;27616;51.420;6.788;2024-02-26T01:59:42;6.20;99.90
41928;DHT22;27616;51.420;6.788;2024-02-26T02:02:10;6.20;99.90
41928;DHT22;27616;51.420;6.788;2024-02-26T02:04:37;6.20;99.90
41928;DHT22;27616;51.420;6.788;2024-02-26T02:07:03;6.20;99.90
41928;DHT22;27616;51.420;6.788;2024-02-26T02:09:29;6.20;99.90
41928;DHT22;27616;51.420;6.788;2024-02-26T02:11:55;6.20;99.90
41928;DHT22;27616;51.420;6.788;2024-02-26T02:14:21;6.20;99.90
41928;DHT22;27616;51.420;6.788;2024-02-26T02:16:47;6.20;99.90
41928;DHT22;27616;51.420;6.788;2024-02-26T02:19:13;6.20;99.90
41928;DHT22;27616;51.420;6.788;2024-02-26T02:21:39;6.20;99.90
41928;DHT22;27616;51.420;6.788;2024-02-26T02:24:05;6.20;99.90
41928;DHT22;27616;51.420;6.788;2024-02-26T02:26:30;6.20;99.90
41928;DHT22;27616;51.420;6.788;2024-02-26T02:28:56;6.20;99.90
41928;DHT22;27616;51.420;6.788;2024-02-26T02:31:22;6.10;99.90
41928;DHT22;27616;51.420;6.788;2024-02-26T02:33:48;6.10;99.90
41928;DHT22;27616;51.420;6.788;2024-02-26T02:36:14;6.10;99.90
41928;DHT22;27616;51.420;6.788;2024-02-26T02:38:49;6.10;99.90
41928;DHT22;27616;51.420;6.788;2024-02-26T02:41:18;6.00;99.90
41928;DHT22;27616;51.420;6.788;2024-02-26T02:43:44;6.00;99.90
41928;DHT22;27616;51.420;6.788;2024-02-26T02:46:09;6.00;99.90
41928;DHT22;27616;51.420;6.788;2024-02-26T02:48:37;6.00;99.90
41928;DHT22;27616;51.420;6.788;2024-02-26T02:51:04;6.00;99.90
41928;DHT22;27616;51.420;6.788;2024-02-26T02:53:30;6.00;99.90
41928;DHT22;27616;51.420;6.788;2024-02-26T02:55:55;6.00;99.90
41928;DHT22;27616;51.420;6.788;2024-02-26T02:58:21;5.90;99.90
41928;DHT22;27616;51.420;6.788;2024-02-26T03:00:47;5.90;99.90
41928;DHT22;27616;51.420;6.788;2024-02-26T03:03:12;5.90;99.90
41928;DHT22;27616;51.420;6.788;2024-02-26T03:05:38;5.90;99.90
41928;DHT22;27616;51.420;6.788;2024-02-26T03:08:04;5.90;99.90
41928;DHT22;27616;51.420;6.788;2024-02-26T03:10:29;5.80;99.90
41928;DHT22;27616;51.420;6.788;2024-02-26T03:12:55;5.80;99.90
41928;DHT22;27616;51.420;6.788;2024-02-26T03:15:21;5.80;99.90
41928;DHT22;27616;51.420;6.788;2024-02-26T03:17:47;5.70;99.90
41928;DHT22;27616;51.420;6.788;2024-02-26T03:20:13;5.60;99.90
41928;DHT22;27616;51.420;6.788;2024-02-26T03:22:39;5.60;99.90
41928;DHT22;27616;51.420;6.788;2024-02-26T03:25:06;5.50;99.90
41928;DHT22;27616;51.420;6.788;2024-02-26T03:27:31;5.40;99.90
41928;DHT22;27616;51.420;6.788;2024-02-26T03:29:58;5.30;99.90
41928;DHT22;27616;51.420;6.788;2024-02-26T03:32:23;5.20;99.90
41928;DHT22;27616;51.420;6.788;2024-02-26T03:34:49;5.10;99.90
41928;DHT22;27616;51.420;6.788;2024-02-26T03:37:14;5.10;99.90
41928;DHT22;27616;51.420;6.788;2024-02-26T03:39:40;5.00;99.90
41928;DHT22;27616;51.420;6.788;2024-02-26T03:42:06;4.90;99.90
41928;DHT22;27616;51.420;6.788;2024-02-26T03:44:32;4.90;99.90
41928;DHT22;27616;51.420;6.788;2024-02-26T03:46:57;4.90;99.90
41928;DHT22;27616;51.420;6.788;2024-02-26T03:49:23;4.80;99.90
41928;DHT22;27616;51.420;6.788;2024-02-26T03:51:49;4.80;99.90
41928;DHT22;27616;51.420;6.788;2024-02-26T03:54:14;4.80;99.90
41928;DHT22;27616;51.420;6.788;2024-02-26T03:56:40;4.80;99.90
41928;DHT22;27616;51.420;6.788;2024-02-26T03:59:06;4.80;99.90
41928;DHT22;27616;51.420;6.788;2024-02-26T04:01:31;4.70;99.90
41928;DHT22;27616;51.420;6.788;2024-02-26T04:03:57;4.70;99.90
41928;DHT22;27616;51.420;6.788;2024-02-26T04:06:22;4.70;99.90
41928;DHT22;27616;51.420;6.788;2024-02-26T04:08:48;4.70;99.90
41928;DHT22;27616;51.420;6.788;2024-02-26T04:11:14;4.70;99.90
41928;DHT22;27616;51.420;6.788;2024-02-26T04:13:43;4.70;99.90
41928;DHT22;27616;51.420;6.788;2024-02-26T04:16:11;4.70;99.90
41928;DHT22;27616;51.420;6.788;2024-02-26T04:18:37;4.70;99.90
41928;DHT22;27616;51.420;6.788;2024-02-26T04:21:04;4.70;99.90
41928;DHT22;27616;51.420;6.788;2024-02-26T04:23:30;4.70;99.90
41928;DHT22;27616;51.420;6.788;2024-02-26T04:25:56;4.70;99.90
41928;DHT22;27616;51.420;6.788;2024-02-26T04:28:22;4.60;99.90
41928;DHT22;27616;51.420;6.788;2024-02-26T04:30:47;4.60;99.90
41928;DHT22;27616;51.420;6.788;2024-02-26T04:33:14;4.60;99.90
41928;DHT22;27616;51.420;6.788;2024-02-26T04:35:39;4.60;99.90
41928;DHT22;27616;51.420;6.788;2024-02-26T04:38:05;4.60;99.90
41928;DHT22;27616;51.420;6.788;2024-02-26T04:40:30;4.60;99.90
41928;DHT22;27616;51.420;6.788;2024-02-26T04:42:56;4.60;99.90
41928;DHT22;27616;51.420;6.788;2024-02-26T04:45:22;4.60;99.90
41928;DHT22;27616;51.420;6.788;2024-02-26T04:47:48;4.60;99.90
41928;DHT22;27616;51.420;6.788;2024-02-26T04:50:14;4.60;99.90
41928;DHT22;27616;51.420;6.788;2024-02-26T04:52:39;4.60;99.90
41928;DHT22;27616;51.420;6.788;2024-02-26T04:55:05;4.60;99.90
41928;DHT22;27616;51.420;6.788;2024-02-26T04:57:31;4.60;99.90
41928;DHT22;27616;51.420;6.788;2024-02-26T04:59:56;4.60;99.90
41928;DHT22;27616;51.420;6.788;2024-02-26T05:02:22;4.50;99.90
41928;DHT22;27616;51.420;6.788;2024-02-26T05:04:47;4.60;99.90
41928;DHT22;27616;51.420;6.788;2024-02-26T05:07:13;4.60;99.90
41928;DHT22;27616;51.420;6.788;2024-02-26T05:09:39;4.60;99.90
41928;DHT22;27616;51.420;6.788;2024-02-26T05:12:05;4.50;99.90
41928;DHT22;27616;51.420;6.788;2024-02-26T05:14:31;4.40;99.90
41928;DHT22;27616;51.420;6.788;2024-02-26T05:16:57;4.40;99.90
41928;DHT22;27616;51.420;6.788;2024-02-26T05:19:22;4.40;99.90
41928;DHT22;27616;51.420;6.788;2024-02-26T05:21:48;4.40;99.90
41928;DHT22;27616;51.420;6.788;2024-02-26T05:24:16;4.50;99.90
41928;DHT22;27616;51.420;6.788;2024-02-26T05:26:43;4.40;99.90
41928;DHT22;27616;51.420;6.788;2024-02-26T05:29:09;4.40;99.90
41928;DHT22;27616;51.420;6.788;2024-02-26T05:31:35;4.40;99.90
41928;DHT22;27616;51.420;6.788;2024-02-26T05:34:01;4.40;99.90
41928;DHT22;27616;51.420;6.788;2024-02-26T05:36:26;4.30;99.90
41928;DHT22;27616;51.420;6.788;2024-02-26T05:38:54;4.30;99.90
41928;DHT22;27616;51.420;6.788;2024-02-26T05:41:20;4.30;99.90
41928;DHT22;27616;51.420;6.788;2024-02-26T05:43:54;4.30;99.90
41928;DHT22;27616;51.420;6.788;2024-02-26T05:46:20;4.30;99.90
41928;DHT22;27616;51.420;6.788;2024-02-26T05:48:48;4.30;99.90
41928;DHT22;27616;51.420;6.788;2024-02-26T05:51:14;4.30;99.90
41928;DHT22;27616;51.420;6.788;2024-02-26T05:53:41;4.30;99.90
41928;DHT22;27616;51.420;6.788;2024-02-26T05:56:06;4.30;99.90
41928;DHT22;27616;51.420;6.788;2024-02-26T05:58:32;4.30;99.90
41928;DHT22;27616;51.420;6.788;2024-02-26T06:00:58;4.30;99.90
41928;DHT22;27616;51.420;6.788;2024-02-26T06:03:24;4.30;99.90
41928;DHT22;27616;51.420;6.788;2024-02-26T06:05:49;4.30;99.90
41928;DHT22;27616;51.420;6.788;2024-02-26T06:08:15;4.30;99.90
41928;DHT22;27616;51.420;6.788;2024-02-26T06:10:40;4.30;99.90
41928;DHT22;27616;51.420;6.788;2024-02-26T06:13:06;4.30;99.90
41928;DHT22;27616;51.420;6.788;2024-02-26T06:15:32;4.30;99.90
41928;DHT22;27616;51.420;6.788;2024-02-26T06:17:57;4.30;99.90
41928;DHT22;27616;51.420;6.788;2024-02-26T06:20:23;4.30;99.90
41928;DHT22;27616;51.420;6.788;2024-02-26T06:22:48;4.30;99.90
41928;DHT22;27616;51.420;6.788;2024-02-26T06:25:14;4.30;99.90
41928;DHT22;27616;51.420;6.788;2024-02-26T06:27:40;4.30;99.90
41928;DHT22;27616;51.420;6.788;2024-02-26T06:30:06;4.30;99.90
41928;DHT22;27616;51.420;6.788;2024-02-26T06:32:31;4.30;99.90
41928;DHT22;27616;51.420;6.788;2024-02-26T06:34:57;4.30;99.90
41928;DHT22;27616;51.420;6.788;2024-02-26T06:37:23;4.30;99.90
41928;DHT22;27616;51.420;6.788;2024-02-26T06:39:48;4.30;99.90
41928;DHT22;27616;51.420;6.788;2024-02-26T06:42:14;4.30;99.90
41928;DHT22;27616;51.420;6.788;2024-02-26T06:44:40;4.30;99.90
41928;DHT22;27616;51.420;6.788;2024-02-26T06:47:05;4.30;99.90
41928;DHT22;27616;51.420;6.788;2024-02-26T06:49:31;4.30;99.90
41928;DHT22;27616;51.420;6.788;2024-02-26T06:51:57;4.30;99.90
41928;DHT22;27616;51.420;6.788;2024-02-26T06:54:22;4.30;99.90
41928;DHT22;27616;51.420;6.788;2024-02-26T06:56:48;4.30;99.90
41928;DHT22;27616;51.420;6.788;2024-02-26T06:59:13;4.30;99.90
41928;DHT22;27616;51.420;6.788;2024-02-26T07:01:42;4.40;99.90
41928;DHT22;27616;51.420;6.788;2024-02-26T07:04:08;4.40;99.90
41928;DHT22;27616;51.420;6.788;2024-02-26T07:06:34;4.40;99.90
41928;DHT22;27616;51.420;6.788;2024-02-26T07:08:59;4.40;99.90
41928;DHT22;27616;51.420;6.788;2024-02-26T07:11:25;4.40;99.90
41928;DHT22;27616;51.420;6.788;2024-02-26T07:13:51;4.40;99.90
41928;DHT22;27616;51.420;6.788;2024-02-26T07:16:16;4.40;99.90
41928;DHT22;27616;51.420;6.788;2024-02-26T07:18:42;4.40;99.90
41928;DHT22;27616;51.420;6.788;2024-02-26T07:21:12;4.50;99.90
41928;DHT22;27616;51.420;6.788;2024-02-26T07:23:37;4.50;99.90
41928;DHT22;27616;51.420;6.788;2024-02-26T07:26:03;4.50;99.90
41928;DHT22;27616;51.420;6.788;2024-02-26T07:28:29;4.50;99.90
41928;DHT22;27616;51.420;6.788;2024-02-26T07:30:54;4.50;99.90
41928;DHT22;27616;51.420;6.788;2024-02-26T07:33:20;4.50;99.90
41928;DHT22;27616;51.420;6.788;2024-02-26T07:35:46;4.50;99.90
41928;DHT22;27616;51.420;6.788;2024-02-26T07:38:11;4.50;99.90
41928;DHT22;27616;51.420;6.788;2024-02-26T07:40:38;4.60;99.90
41928;DHT22;27616;51.420;6.788;2024-02-26T07:43:04;4.60;99.90
41928;DHT22;27616;51.420;6.788;2024-02-26T07:45:30;4.60;99.90
41928;DHT22;27616;51.420;6.788;2024-02-26T07:47:55;4.60;99.90
41928;DHT22;27616;51.420;6.788;2024-02-26T07:50:21;4.60;99.90
41928;DHT22;27616;51.420;6.788;2024-02-26T07:52:46;4.60;99.90
41928;DHT22;27616;51.420;6.788;2024-02-26T07:55:12;4.60;99.90
41928;DHT22;27616;51.420;6.788;2024-02-26T07:57:42;4.60;99.90
41928;DHT22;27616;51.420;6.788;2024-02-26T08:00:08;4.60;99.90
41928;DHT22;27616;51.420;6.788;2024-02-26T08:02:35;4.60;99.90
41928;DHT22;27616;51.420;6.788;2024-02-26T08:05:01;4.60;99.90
41928;DHT22;27616;51.420;6.788;2024-02-26T08:07:26;4.60;99.90
41928;DHT22;27616;51.420;6.788;2024-02-26T08:09:52;4.60;99.90
41928;DHT22;27616;51.420;6.788;2024-02-26T08:12:17;4.60;99.90
41928;DHT22;27616;51.420;6.788;2024-02-26T08:14:43;4.60;99.90
41928;DHT22;27616;51.420;6.788;2024-02-26T08:17:09;4.60;99.90
41928;DHT22;27616;51.420;6.788;2024-02-26T08:19:35;4.60;99.90
41928;DHT22;27616;51.420;6.788;2024-02-26T08:22:01;4.60;99.90
41928;DHT22;27616;51.420;6.788;2024-02-26T08:24:27;4.60;99.90
41928;DHT22;27616;51.420;6.788;2024-02-26T08:26:53;4.60;99.90
41928;DHT22;27616;51.420;6.788;2024-02-26T08:29:19;4.70;99.90
41928;DHT22;27616;51.420;6.788;2024-02-26T08:31:44;4.70;99.90
41928;DHT22;27616;51.420;6.788;2024-02-26T08:34:10;4.70;99.90
41928;DHT22;27616;51.420;6.788;2024-02-26T08:36:36;4.70;99.90
41928;DHT22;27616;51.420;6.788;2024-02-26T08:39:02;4.70;99.90
41928;DHT22;27616;51.420;6.788;2024-02-26T08:41:28;4.70;99.90
41928;DHT22;27616;51.420;6.788;2024-02-26T08:43:53;4.70;99.90
41928;DHT22;27616;51.420;6.788;2024-02-26T08:46:20;4.70;99.90
41928;DHT22;27616;51.420;6.788;2024-02-26T08:48:45;4.80;99.90
41928;DHT22;27616;51.420;6.788;2024-02-26T08:51:11;4.80;99.90
41928;DHT22;27616;51.420;6.788;2024-02-26T08:53:37;4.90;99.90
41928;DHT22;27616;51.420;6.788;2024-02-26T08:56:02;4.80;99.90
41928;DHT22;27616;51.420;6.788;2024-02-26T08:58:28;4.80;99.90
41928;DHT22;27616;51.420;6.788;2024-02-26T09:00:55;4.90;99.90
41928;DHT22;27616;51.420;6.788;2024-02-26T09:03:20;4.90;99.90
41928;DHT22;27616;51.420;6.788;2024-02-26T09:05:46;4.90;99.90
41928;DHT22;27616;51.420;6.788;2024-02-26T09:08:12;4.90;99.90
41928;DHT22;27616;51.420;6.788;2024-02-26T09:10:38;4.90;99.90
41928;DHT22;27616;51.420;6.788;2024-02-26T09:13:04;4.90;99.90
41928;DHT22;27616;51.420;6.788;2024-02-26T09:15:30;5.00;99.90
41928;DHT22;27616;51.420;6.788;2024-02-26T09:17:55;5.00;99.90
41928;DHT22;27616;51.420;6.788;2024-02-26T09:20:21;5.00;99.90
41928;DHT22;27616;51.420;6.788;2024-02-26T09:22:49;5.00;99.90
41928;DHT22;27616;51.420;6.788;2024-02-26T09:25:15;5.00;99.90
41928;DHT22;27616;51.420;6.788;2024-02-26T09:27:44;5.00;99.90
41928;DHT22;27616;51.420;6.788;2024-02-26T09:30:11;5.00;99.90
41928;DHT22;27616;51.420;6.788;2024-02-26T09:32:37;4.90;99.90
41928;DHT22;27616;51.420;6.788;2024-02-26T09:35:03;5.00;99.90
41928;DHT22;27616;51.420;6.788;2024-02-26T09:37:29;4.90;99.90
41928;DHT22;27616;51.420;6.788;2024-02-26T09:39:54;4.90;99.90
41928;DHT22;27616;51.420;6.788;2024-02-26T09:42:20;5.00;99.90
41928;DHT22;27616;51.420;6.788;2024-02-26T09:44:49;5.00;99.90
41928;DHT22;27616;51.420;6.788;2024-02-26T09:47:17;4.90;99.90
41928;DHT22;27616;51.420;6.788;2024-02-26T09:49:43;5.00;99.90
41928;DHT22;27616;51.420;6.788;2024-02-26T09:52:09;5.00;99.90
41928;DHT22;27616;51.420;6.788;2024-02-26T09:54:35;4.90;99.90
41928;DHT22;27616;51.420;6.788;2024-02-26T09:57:02;4.90;99.90
41928;DHT22;27616;51.420;6.788;2024-02-26T09:59:33;4.90;99.90
41928;DHT22;27616;51.420;6.788;2024-02-26T10:02:01;4.90;99.90
41928;DHT22;27616;51.420;6.788;2024-02-26T10:04:28;4.90;99.90
41928;DHT22;27616;51.420;6.788;2024-02-26T10:06:54;4.90;99.90
41928;DHT22;27616;51.420;6.788;2024-02-26T10:09:20;4.90;99.90
41928;DHT22;27616;51.420;6.788;2024-02-26T10:11:47;5.00;99.90
41928;DHT22;27616;51.420;6.788;2024-02-26T10:14:14;4.90;99.90
41928;DHT22;27616;51.420;6.788;2024-02-26T10:16:41;5.00;99.90
41928;DHT22;27616;51.420;6.788;2024-02-26T10:19:07;4.90;99.90
41928;DHT22;27616;51.420;6.788;2024-02-26T10:21:32;5.00;99.90
41928;DHT22;27616;51.420;6.788;2024-02-26T10:23:58;5.00;99.90
41928;DHT22;27616;51.420;6.788;2024-02-26T10:26:23;5.00;99.90
41928;DHT22;27616;51.420;6.788;2024-02-26T10:28:49;5.00;99.90
41928;DHT22;27616;51.420;6.788;2024-02-26T10:31:15;5.10;99.90
41928;DHT22;27616;51.420;6.788;2024-02-26T10:33:42;5.10;99.90
41928;DHT22;27616;51.420;6.788;2024-02-26T10:36:08;5.10;99.90
41928;DHT22;27616;51.420;6.788;2024-02-26T10:38:35;5.20;99.90
41928;DHT22;27616;51.420;6.788;2024-02-26T10:41:02;5.20;99.90
41928;DHT22;27616;51.420;6.788;2024-02-26T10:43:28;5.10;99.90
41928;DHT22;27616;51.420;6.788;2024-02-26T10:45:57;5.20;99.90
41928;DHT22;27616;51.420;6.788;2024-02-26T10:48:23;5.20;99.90
41928;DHT22;27616;51.420;6.788;2024-02-26T10:50:49;5.20;99.90
41928;DHT22;27616;51.420;6.788;2024-02-26T10:53:22;5.30;99.90
41928;DHT22;27616;51.420;6.788;2024-02-26T10:56:00;5.30;99.90
41928;DHT22;27616;51.420;6.788;2024-02-26T10:58:27;5.30;99.90
41928;DHT22;27616;51.420;6.788;2024-02-26T11:00:55;5.40;99.90
41928;DHT22;27616;51.420;6.788;2024-02-26T11:03:22;5.40;99.90
41928;DHT22;27616;51.420;6.788;2024-02-26T11:05:49;5.40;99.90
41928;DHT22;27616;51.420;6.788;2024-02-26T11:08:17;5.40;99.90
41928;DHT22;27616;51.420;6.788;2024-02-26T11:10:43;5.50;99.90
41928;DHT22;27616;51.420;6.788;2024-02-26T11:13:14;5.60;99.90
41928;DHT22;27616;51.420;6.788;2024-02-26T11:15:40;5.60;99.90
41928;DHT22;27616;51.420;6.788;2024-02-26T11:18:07;5.70;99.90
41928;DHT22;27616;51.420;6.788;2024-02-26T11:20:34;5.80;99.90
41928;DHT22;27616;51.420;6.788;2024-02-26T11:23:09;5.80;99.90
41928;DHT22;27616;51.420;6.788;2024-02-26T11:25:40;5.90;99.90
41928;DHT22;27616;51.420;6.788;2024-02-26T11:28:11;5.90;99.90
41928;DHT22;27616;51.420;6.788;2024-02-26T11:30:41;5.90;99.90
41928;DHT22;27616;51.420;6.788;2024-02-26T11:33:17;5.80;99.90
41928;DHT22;27616;51.420;6.788;2024-02-26T11:35:55;5.80;99.90
41928;DHT22;27616;51.420;6.788;2024-02-26T11:38:27;5.80;99.90
41928;DHT22;27616;51.420;6.788;2024-02-26T11:40:59;5.80;99.90
41928;DHT22;27616;51.420;6.788;2024-02-26T11:43:59;5.80;99.90
41928;DHT22;27616;51.420;6.788;2024-02-26T11:46:40;5.80;99.90
41928;DHT22;27616;51.420;6.788;2024-02-26T11:51:59;6.00;99.90
41928;DHT22;27616;51.420;6.788;2024-02-26T11:54:48;6.00;99.90
41928;DHT22;27616;51.420;6.788;2024-02-26T11:57:37;6.00;99.90
41928;DHT22;27616;51.420;6.788;2024-02-26T12:02:55;6.10;99.90
41928;DHT22;27616;51.420;6.788;2024-02-26T12:05:31;6.20;99.90
41928;DHT22;27616;51.420;6.788;2024-02-26T12:10:47;6.40;99.90
41928;DHT22;27616;51.420;6.788;2024-02-26T12:13:18;6.50;99.90
41928;DHT22;27616;51.420;6.788;2024-02-26T12:15:57;6.50;99.90
41928;DHT22;27616;51.420;6.788;2024-02-26T12:18:23;6.60;99.90
41928;DHT22;27616;51.420;6.788;2024-02-26T12:21:02;6.60;99.90
41928;DHT22;27616;51.420;6.788;2024-02-26T12:23:28;6.50;99.90
41928;DHT22;27616;51.420;6.788;2024-02-26T12:26:04;6.50;99.90
41928;DHT22;27616;51.420;6.788;2024-02-26T12:28:33;6.60;99.90
41928;DHT22;27616;51.420;6.788;2024-02-26T12:31:08;6.70;99.90
41928;DHT22;27616;51.420;6.788;2024-02-26T12:33:34;6.70;99.90
41928;DHT22;27616;51.420;6.788;2024-02-26T12:36:03;6.60;99.90
41928;DHT22;27616;51.420;6.788;2024-02-26T12:38:29;6.60;99.90
41928;DHT22;27616;51.420;6.788;2024-02-26T12:40:58;6.60;99.90
41928;DHT22;27616;51.420;6.788;2024-02-26T12:43:24;6.70;99.90
41928;DHT22;27616;51.420;6.788;2024-02-26T12:45:56;6.60;99.90
41928;DHT22;27616;51.420;6.788;2024-02-26T12:48:22;6.60;99.90
41928;DHT22;27616;51.420;6.788;2024-02-26T12:50:51;6.60;99.90
41928;DHT22;27616;51.420;6.788;2024-02-26T12:53:21;6.60;99.90
41928;DHT22;27616;51.420;6.788;2024-02-26T12:55:54;6.60;99.90
41928;DHT22;27616;51.420;6.788;2024-02-26T12:58:21;6.70;99.90
41928;DHT22;27616;51.420;6.788;2024-02-26T13:00:57;6.60;99.90
41928;DHT22;27616;51.420;6.788;2024-02-26T13:03:23;6.60;99.90
41928;DHT22;27616;51.420;6.788;2024-02-26T13:05:50;6.60;99.90
41928;DHT22;27616;51.420;6.788;2024-02-26T13:08:23;6.60;99.90
41928;DHT22;27616;51.420;6.788;2024-02-26T13:10:59;6.60;99.90
41928;DHT22;27616;51.420;6.788;2024-02-26T13:13:25;6.70;99.90
41928;DHT22;27616;51.420;6.788;2024-02-26T13:16:10;6.70;99.90
41928;DHT22;27616;51.420;6.788;2024-02-26T13:18:42;6.70;99.90
41928;DHT22;27616;51.420;6.788;2024-02-26T13:21:15;6.70;99.90
41928;DHT22;27616;51.420;6.788;2024-02-26T13:23:48;6.80;99.90
41928;DHT22;27616;51.420;6.788;2024-02-26T13:26:17;6.80;99.90
41928;DHT22;27616;51.420;6.788;2024-02-26T13:28:47;6.90;99.90
41928;DHT22;27616;51.420;6.788;2024-02-26T13:31:18;6.90;99.90
41928;DHT22;27616;51.420;6.788;2024-02-26T13:33:47;6.90;99.90
41928;DHT22;27616;51.420;6.788;2024-02-26T13:36:17;6.90;99.90
41928;DHT22;27616;51.420;6.788;2024-02-26T13:38:54;7.00;99.90
41928;DHT22;27616;51.420;6.788;2024-02-26T13:41:21;7.00;99.90
41928;DHT22;27616;51.420;6.788;2024-02-26T13:43:47;7.10;99.90
41928;DHT22;27616;51.420;6.788;2024-02-26T13:46:15;7.10;99.90
41928;DHT22;27616;51.420;6.788;2024-02-26T13:48:44;7.10;99.90
41928;DHT22;27616;51.420;6.788;2024-02-26T13:51:18;7.10;99.90
41928;DHT22;27616;51.420;6.788;2024-02-26T13:53:44;7.10;99.90
41928;DHT22;27616;51.420;6.788;2024-02-26T13:56:16;7.20;99.90
41928;DHT22;27616;51.420;6.788;2024-02-26T13:58:47;7.20;99.90
41928;DHT22;27616;51.420;6.788;2024-02-26T14:01:16;7.30;99.90
41928;DHT22;27616;51.420;6.788;2024-02-26T14:03:48;7.30;99.90
41928;DHT22;27616;51.420;6.788;2024-02-26T14:06:14;7.30;99.90
41928;DHT22;27616;51.420;6.788;2024-02-26T14:08:40;7.30;99.90
41928;DHT22;27616;51.420;6.788;2024-02-26T14:11:08;7.30;99.90
41928;DHT22;27616;51.420;6.788;2024-02-26T14:13:36;7.30;99.90
41928;DHT22;27616;51.420;6.788;2024-02-26T14:16:02;7.30;99.90
41928;DHT22;27616;51.420;6.788;2024-02-26T14:18:32;7.40;99.90
41928;DHT22;27616;51.420;6.788;2024-02-26T14:20:58;7.30;99.90
41928;DHT22;27616;51.420;6.788;2024-02-26T14:23:30;7.30;99.90
41928;DHT22;27616;51.420;6.788;2024-02-26T14:26:07;7.30;99.90
41928;DHT22;27616;51.420;6.788;2024-02-26T14:28:39;7.30;99.90
41928;DHT22;27616;51.420;6.788;2024-02-26T14:31:19;7.30;99.90
41928;DHT22;27616;51.420;6.788;2024-02-26T14:33:45;7.30;99.90
41928;DHT22;27616;51.420;6.788;2024-02-26T14:36:12;7.20;99.90
41928;DHT22;27616;51.420;6.788;2024-02-26T14:38:38;7.20;99.90
41928;DHT22;27616;51.420;6.788;2024-02-26T14:41:05;7.20;99.90
41928;DHT22;27616;51.420;6.788;2024-02-26T14:43:31;7.20;99.90
41928;DHT22;27616;51.420;6.788;2024-02-26T14:46:00;7.20;99.90
41928;DHT22;27616;51.420;6.788;2024-02-26T14:48:26;7.20;99.90
41928;DHT22;27616;51.420;6.788;2024-02-26T14:50:51;7.20;99.90
41928;DHT22;27616;51.420;6.788;2024-02-26T14:53:17;7.20;99.90
41928;DHT22;27616;51.420;6.788;2024-02-26T14:55:43;7.20;99.90
41928;DHT22;27616;51.420;6.788;2024-02-26T14:58:09;7.20;99.90
41928;DHT22;27616;51.420;6.788;2024-02-26T15:00:40;7.20;99.90
41928;DHT22;27616;51.420;6.788;2024-02-26T15:03:06;7.20;99.90
41928;DHT22;27616;51.420;6.788;2024-02-26T15:05:32;7.10;99.90
41928;DHT22;27616;51.420;6.788;2024-02-26T15:07:58;7.10;99.90
41928;DHT22;27616;51.420;6.788;2024-02-26T15:10:24;7.10;99.90
41928;DHT22;27616;51.420;6.788;2024-02-26T15:12:50;7.20;99.90
41928;DHT22;27616;51.420;6.788;2024-02-26T15:15:20;7.10;99.90
41928;DHT22;27616;51.420;6.788;2024-02-26T15:17:45;7.10;99.90
41928;DHT22;27616;51.420;6.788;2024-02-26T15:20:11;7.10;99.90
41928;DHT22;27616;51.420;6.788;2024-02-26T15:22:37;7.10;99.90
41928;DHT22;27616;51.420;6.788;2024-02-26T15:25:03;7.10;99.90
41928;DHT22;27616;51.420;6.788;2024-02-26T15:27:29;7.10;99.90
41928;DHT22;27616;51.420;6.788;2024-02-26T15:29:55;7.10;99.90
41928;DHT22;27616;51.420;6.788;2024-02-26T15:32:24;7.00;99.90
41928;DHT22;27616;51.420;6.788;2024-02-26T15:34:50;7.00;99.90
41928;DHT22;27616;51.420;6.788;2024-02-26T15:37:17;7.00;99.90
41928;DHT22;27616;51.420;6.788;2024-02-26T15:39:43;7.00;99.90
41928;DHT22;27616;51.420;6.788;2024-02-26T15:42:10;7.00;99.90
41928;DHT22;27616;51.420;6.788;2024-02-26T15:44:37;6.90;99.90
41928;DHT22;27616;51.420;6.788;2024-02-26T15:47:04;6.90;99.90
41928;DHT22;27616;51.420;6.788;2024-02-26T15:49:30;6.90;99.90
41928;DHT22;27616;51.420;6.788;2024-02-26T15:51:56;6.90;99.90